Time;durP1;ratioP1;P1;durP2;ratioP2;P2;SDS_P1;SDS_P2;PMS_P1;PMS_P2;Temp;Humidity;BMP_temperature;BMP_pressure;BME280_temperature;BME280_humidity;BME280_pressure;Samples;Min_cycle;Max_cycle;Signal;HPM_P1;HPM_P2
2023/05/16 00:00:25;;;;;;;9.57;8.57;;;;;;;16.85;71.31;94335.31;5129819;28;20298;-46
2023/05/16 00:02:52;;;;;;;8.80;7.90;;;;;;;16.76;71.25;94324.28;5128898;28;20257;-45
2023/05/16 00:05:19;;;;;;;9.80;8.10;;;;;;;16.79;71.28;94331.66;5129731;28;20192;-45
2023/05/16 00:07:47;;;;;;;9.27;8.37;;;;;;;16.73;71.50;94324.66;5129337;28;20184;-45
2023/05/16 00:10:15;;;;;;;10.03;8.43;;;;;;;16.80;71.47;94327.31;5129764;28;20272;-43
2023/05/16 00:12:43;;;;;;;9.87;8.73;;;;;;;16.77;71.48;94332.84;5130302;28;20757;-45
2023/05/16 00:15:12;;;;;;;9.40;8.40;;;;;;;16.76;71.49;94323.50;5130033;28;20570;-45
2023/05/16 00:17:40;;;;;;;11.77;8.80;;;;;;;16.74;71.58;94320.28;5129114;28;20191;-46
2023/05/16 00:20:10;;;;;;;10.07;9.07;;;;;;;16.73;71.54;94323.88;5129603;28;20779;-45
2023/05/16 00:22:37;;;;;;;9.43;8.03;;;;;;;16.68;71.58;94326.16;5129851;28;20208;-46
2023/05/16 00:25:05;;;;;;;11.17;9.67;;;;;;;16.71;71.81;94320.63;5129168;28;20228;-44
2023/05/16 00:27:34;;;;;;;10.40;9.27;;;;;;;16.69;71.72;94320.81;5129466;28;20203;-46
2023/05/16 00:30:01;;;;;;;15.00;9.50;;;;;;;16.67;71.70;94320.22;5131654;27;20188;-46
2023/05/16 00:32:28;;;;;;;12.10;9.13;;;;;;;16.66;71.95;94321.16;5132679;27;20200;-45
2023/05/16 00:34:55;;;;;;;9.63;8.63;;;;;;;16.63;72.18;94307.84;5133619;27;20184;-48
2023/05/16 00:37:21;;;;;;;10.50;9.13;;;;;;;16.63;72.09;94308.66;5133922;27;20196;-46
2023/05/16 00:39:48;;;;;;;9.50;8.50;;;;;;;16.55;71.89;94291.50;5133229;27;20284;-45
2023/05/16 00:42:15;;;;;;;11.33;8.37;;;;;;;16.63;72.00;94305.28;5133205;27;20283;-45
2023/05/16 00:44:43;;;;;;;12.60;9.43;;;;;;;16.43;72.06;94271.50;5133026;27;20188;-44
2023/05/16 00:47:10;;;;;;;11.63;8.90;;;;;;;16.61;72.17;94299.47;5132476;27;20181;-45
2023/05/16 00:49:37;;;;;;;9.73;8.70;;;;;;;16.49;72.31;94263.84;5132744;27;20200;-42
2023/05/16 00:52:04;;;;;;;10.80;8.40;;;;;;;16.59;72.16;94279.03;5133463;27;20561;-46
2023/05/16 00:54:31;;;;;;;9.93;8.90;;;;;;;16.37;72.27;94239.50;5133040;27;20245;-44
2023/05/16 00:56:58;;;;;;;9.10;8.20;;;;;;;16.57;72.35;94270.66;5132551;27;20199;-44
2023/05/16 00:59:25;;;;;;;9.93;8.90;;;;;;;16.54;72.23;94277.00;5132776;27;20189;-45
2023/05/16 01:01:54;;;;;;;9.33;8.37;;;;;;;16.53;72.44;94277.16;5132560;27;20188;-46
2023/05/16 01:04:22;;;;;;;9.53;8.53;;;;;;;16.54;72.45;94274.41;5132650;27;20208;-46
2023/05/16 01:06:49;;;;;;;11.43;9.60;;;;;;;16.53;72.41;94277.94;5132749;27;20184;-46
2023/05/16 01:09:16;;;;;;;13.33;8.97;;;;;;;16.53;72.62;94277.16;5132907;27;20184;-46
2023/05/16 01:11:50;;;;;;;10.23;9.13;;;;;;;16.52;72.67;94281.53;5132506;27;20561;-43
2023/05/16 01:14:25;;;;;;;10.37;9.00;;;;;;;16.49;72.63;94271.59;5133089;27;20219;-45
2023/05/16 01:17:05;;;;;;;10.03;9.00;;;;;;;16.50;72.63;94280.13;5131844;27;20290;-44
2023/05/16 01:19:50;;;;;;;13.83;9.07;;;;;;;16.46;72.80;94273.75;5131671;27;20571;-44
2023/05/16 01:22:26;;;;;;;10.43;9.33;;;;;;;16.47;72.77;94272.75;5132895;27;20569;-44
2023/05/16 01:25:05;;;;;;;9.73;8.00;;;;;;;16.30;72.90;94246.38;5131821;27;20219;-44
2023/05/16 01:27:34;;;;;;;10.57;8.83;;;;;;;16.44;72.80;94267.94;5132400;27;20192;-46
2023/05/16 01:30:01;;;;;;;9.97;8.50;;;;;;;16.43;73.02;94259.41;5131746;27;20188;-45
2023/05/16 01:32:29;;;;;;;9.77;8.77;;;;;;;16.42;72.97;94259.59;5131520;27;20234;-43
2023/05/16 01:34:56;;;;;;;11.60;9.03;;;;;;;16.43;72.97;94256.03;5131866;27;20200;-46
2023/05/16 01:37:32;;;;;;;11.80;8.50;;;;;;;16.42;72.83;94249.28;5132479;27;20176;-46
2023/05/16 01:40:06;;;;;;;10.33;8.57;;;;;;;16.40;73.01;94244.28;5131591;27;20203;-47
2023/05/16 01:42:39;;;;;;;9.47;8.40;;;;;;;16.39;72.68;94241.88;5132951;27;20189;-46
2023/05/16 01:45:13;;;;;;;10.23;8.17;;;;;;;16.37;73.18;94238.72;5132928;27;20204;-46
2023/05/16 01:47:44;;;;;;;9.77;8.37;;;;;;;16.39;73.11;94244.47;5131089;27;20181;-45
2023/05/16 01:50:15;;;;;;;9.57;8.07;;;;;;;16.39;73.23;94239.31;5131561;27;20188;-44
2023/05/16 01:52:46;;;;;;;9.83;8.00;;;;;;;16.37;73.30;94236.13;5131491;27;20314;-44
2023/05/16 01:55:16;;;;;;;10.23;9.17;;;;;;;16.37;73.30;94238.72;5131867;27;20641;-45
2023/05/16 01:57:46;;;;;;;10.07;9.07;;;;;;;16.17;73.22;94204.97;5131698;27;20571;-42
2023/05/16 02:00:13;;;;;;;10.43;9.33;;;;;;;16.35;73.35;94235.50;5131483;27;20241;-45
2023/05/16 02:02:40;;;;;;;10.30;8.47;;;;;;;16.34;73.27;94228.75;5131929;27;20926;-45
2023/05/16 02:05:07;;;;;;;11.40;8.80;;;;;;;16.31;73.46;94219.56;5133087;27;20196;-45
2023/05/16 02:07:34;;;;;;;9.30;8.03;;;;;;;16.22;73.44;94210.38;5135304;27;20199;-42
2023/05/16 02:10:01;;;;;;;11.30;9.23;;;;;;;16.11;73.34;94205.72;5132945;27;20188;-45
2023/05/16 02:12:28;;;;;;;10.27;8.53;;;;;;;16.30;73.42;94230.88;5131838;27;20227;-45
2023/05/16 02:14:56;;;;;;;10.63;8.80;;;;;;;16.32;73.42;94223.78;5131043;27;20193;-44
2023/05/16 02:17:23;;;;;;;10.70;8.00;;;;;;;16.16;73.46;94204.16;5131591;27;20622;-44
2023/05/16 02:19:49;;;;;;;9.37;8.40;;;;;;;16.28;73.32;94225.94;5130707;27;20584;-45
2023/05/16 02:22:16;;;;;;;9.97;8.50;;;;;;;16.14;73.42;94192.44;5130729;27;20207;-45
2023/05/16 02:24:43;;;;;;;10.63;8.43;;;;;;;16.29;73.55;94221.56;5130871;27;20696;-43
2023/05/16 02:27:10;;;;;;;10.00;8.43;;;;;;;16.22;73.35;94211.16;5131396;27;20198;-44
2023/05/16 02:29:37;;;;;;;9.50;8.60;;;;;;;16.28;73.71;94225.13;5131093;27;20192;-47
2023/05/16 02:32:06;;;;;;;13.00;8.87;;;;;;;16.28;73.70;94225.13;5130719;27;20208;-46
2023/05/16 02:34:32;;;;;;;10.57;8.70;;;;;;;16.27;73.66;94224.31;5130703;27;20601;-44
2023/05/16 02:36:59;;;;;;;10.20;8.83;;;;;;;16.27;73.67;94233.84;5130685;27;20201;-44
2023/05/16 02:39:26;;;;;;;10.60;8.53;;;;;;;16.26;73.68;94235.63;5131419;27;20181;-45
2023/05/16 02:41:53;;;;;;;8.90;8.10;;;;;;;16.26;73.70;94234.81;5133928;27;20195;-45
2023/05/16 02:44:19;;;;;;;10.70;9.20;;;;;;;16.26;73.81;94229.66;5135221;27;20652;-44
2023/05/16 02:46:46;;;;;;;10.40;8.27;;;;;;;16.25;73.77;94225.50;5134304;27;20176;-45
2023/05/16 02:49:14;;;;;;;12.50;9.07;;;;;;;16.25;73.84;94222.91;5130845;27;20180;-44
2023/05/16 02:51:41;;;;;;;10.03;8.33;;;;;;;16.25;73.79;94220.31;5130656;27;20219;-46
2023/05/16 02:54:08;;;;;;;9.97;8.43;;;;;;;16.08;73.94;94185.44;5130733;27;20192;-46
2023/05/16 02:56:36;;;;;;;8.93;7.90;;;;;;;16.22;74.01;94212.94;5131087;27;20274;-45
2023/05/16 02:59:03;;;;;;;9.67;8.33;;;;;;;16.21;73.37;94214.72;5130392;27;20228;-45
2023/05/16 03:01:30;;;;;;;8.73;7.93;;;;;;;16.25;73.88;94208.22;5130769;27;20616;-45
2023/05/16 03:03:56;;;;;;;12.27;9.00;;;;;;;15.97;73.71;94173.81;5130196;27;20181;-46
2023/05/16 03:06:25;;;;;;;12.10;8.03;;;;;;;16.25;74.06;94217.75;5130153;27;20670;-45
2023/05/16 03:08:51;;;;;;;11.10;8.80;;;;;;;16.22;74.05;94203.41;5130452;27;20221;-45
2023/05/16 03:11:21;;;;;;;9.37;8.37;;;;;;;16.17;74.03;94192.88;5131014;27;20245;-46
2023/05/16 03:13:47;;;;;;;17.37;8.63;;;;;;;16.23;73.96;94205.00;5131581;27;20732;-46
2023/05/16 03:16:15;;;;;;;10.57;8.30;;;;;;;16.25;74.04;94207.44;5130789;27;20537;-46
2023/05/16 03:18:42;;;;;;;12.77;9.30;;;;;;;16.24;74.00;94211.00;5130066;27;20203;-46
2023/05/16 03:21:09;;;;;;;10.43;8.30;;;;;;;16.25;74.18;94215.16;5130077;27;20191;-47
2023/05/16 03:23:37;;;;;;;9.30;8.33;;;;;;;16.26;74.09;94212.41;5129940;27;20210;-44
2023/05/16 03:26:04;;;;;;;10.53;8.73;;;;;;;16.27;74.09;94215.78;5130076;27;20231;-44
2023/05/16 03:28:30;;;;;;;9.33;8.37;;;;;;;16.25;74.15;94205.63;5130657;27;20192;-44
2023/05/16 03:30:57;;;;;;;9.13;8.13;;;;;;;16.27;74.12;94211.41;5129982;27;20195;-46
2023/05/16 03:33:24;;;;;;;11.03;8.50;;;;;;;16.27;74.17;94208.81;5130450;27;20224;-45
2023/05/16 03:35:52;;;;;;;11.73;8.27;;;;;;;16.27;74.08;94208.03;5129507;27;20176;-42
2023/05/16 03:38:19;;;;;;;9.70;8.70;;;;;;;16.29;74.13;94213.81;5130699;27;20621;-45
2023/05/16 03:40:47;;;;;;;8.43;7.50;;;;;;;16.29;74.10;94204.28;5130349;27;20680;-48
2023/05/16 03:43:14;;;;;;;8.93;8.03;;;;;;;16.30;74.13;94207.66;5130654;28;20192;-46
2023/05/16 03:45:41;;;;;;;9.47;7.97;;;;;;;16.26;74.02;94201.28;5130131;28;20184;-45
2023/05/16 03:48:09;;;;;;;9.60;8.60;;;;;;;16.07;74.15;94168.38;5130478;28;20188;-45
2023/05/16 03:50:36;;;;;;;8.33;7.50;;;;;;;16.31;74.20;94207.47;5129761;28;20220;-43
2023/05/16 03:53:03;;;;;;;9.33;8.13;;;;;;;16.26;74.25;94193.53;5130047;28;20738;-44
2023/05/16 03:55:30;;;;;;;9.03;8.17;;;;;;;16.33;74.25;94202.16;5130226;28;20256;-50
2023/05/16 03:57:59;;;;;;;8.67;7.77;;;;;;;16.34;74.08;94211.47;5129932;28;20245;-45
2023/05/16 04:00:26;;;;;;;10.13;7.70;;;;;;;16.34;74.40;94208.09;5130191;28;20273;-46
2023/05/16 04:02:52;;;;;;;9.33;8.30;;;;;;;16.35;74.29;94210.50;5129286;28;20207;-44
2023/05/16 04:05:19;;;;;;;9.23;8.27;;;;;;;16.37;74.38;94207.75;5131055;27;20180;-45
2023/05/16 04:07:46;;;;;;;9.37;8.37;;;;;;;16.35;74.12;94204.53;5134476;27;20202;-48
2023/05/16 04:10:15;;;;;;;8.57;7.67;;;;;;;16.37;74.28;94211.13;5134145;27;20210;-46
2023/05/16 04:12:41;;;;;;;8.80;8.00;;;;;;;16.38;74.26;94210.13;5134074;27;20700;-47
2023/05/16 04:15:10;;;;;;;9.57;8.10;;;;;;;16.39;74.26;94219.47;5134308;27;20192;-44
2023/05/16 04:17:38;;;;;;;8.83;7.53;;;;;;;16.39;74.52;94218.66;5133659;27;20188;-44
2023/05/16 04:20:06;;;;;;;8.63;7.67;;;;;;;16.40;74.21;94221.06;5133402;27;20187;-46
2023/05/16 04:22:33;;;;;;;9.80;8.53;;;;;;;16.41;74.41;94211.56;5132354;27;20188;-45
2023/05/16 04:25:00;;;;;;;8.37;7.47;;;;;;;16.41;74.35;94214.94;5132752;27;20223;-45
2023/05/16 04:27:26;;;;;;;12.00;7.57;;;;;;;16.44;74.43;94209.38;5133843;27;20661;-45
2023/05/16 04:29:53;;;;;;;8.80;7.90;;;;;;;16.43;74.17;94207.00;5132928;27;20199;-42
2023/05/16 04:32:22;;;;;;;9.03;8.00;;;;;;;16.46;74.40;94209.22;5132325;27;20572;-43
2023/05/16 04:34:52;;;;;;;9.03;7.50;;;;;;;16.48;74.25;94207.22;5133258;27;20284;-45
2023/05/16 04:37:19;;;;;;;9.17;8.03;;;;;;;16.50;74.06;94200.13;5133358;27;20275;-45
2023/05/16 04:39:46;;;;;;;11.17;9.07;;;;;;;16.47;74.16;94200.47;5133689;27;20192;-46
2023/05/16 04:42:13;;;;;;;11.47;7.87;;;;;;;16.53;74.25;94203.09;5133029;27;20235;-46
2023/05/16 04:44:41;;;;;;;11.73;8.27;;;;;;;16.55;74.04;94202.94;5133093;27;20196;-45
2023/05/16 04:47:08;;;;;;;10.87;7.93;;;;;;;16.58;74.10;94205.16;5133027;27;20184;-46
2023/05/16 04:49:36;;;;;;;8.47;7.60;;;;;;;16.60;74.19;94199.78;5133208;27;20580;-46
2023/05/16 04:52:03;;;;;;;7.90;6.97;;;;;;;16.61;74.41;94202.16;5132571;27;20184;-45
2023/05/16 04:54:30;;;;;;;18.40;7.10;;;;;;;16.90;88.75;94205.59;5131788;27;20196;-46
2023/05/16 04:56:57;;;;;;;13.93;6.93;;;;;;;17.24;91.32;94192.69;5133337;27;20188;-46
2023/05/16 04:59:23;;;;;;;12.60;7.07;;;;;;;17.53;90.64;94194.25;5132089;27;20432;-45
2023/05/16 05:01:50;;;;;;;10.63;7.67;;;;;;;17.76;89.05;94182.81;5133189;27;20680;-45
2023/05/16 05:04:17;;;;;;;8.20;6.73;;;;;;;17.98;87.56;94188.63;5132107;27;20252;-45
2023/05/16 05:06:45;;;;;;;9.87;7.20;;;;;;;18.07;86.27;94176.31;5133221;27;20228;-47
2023/05/16 05:09:12;;;;;;;17.87;7.53;;;;;;;18.28;85.50;94195.06;5133030;27;20192;-45
2023/05/16 05:11:39;;;;;;;9.40;6.60;;;;;;;18.42;85.10;94202.84;5133330;27;20191;-46
2023/05/16 05:14:06;;;;;;;7.33;6.63;;;;;;;18.45;84.15;94190.31;5133169;27;20204;-45
2023/05/16 05:16:33;;;;;;;7.90;6.93;;;;;;;18.67;83.59;94197.88;5132167;27;20187;-47
2023/05/16 05:19:00;;;;;;;10.90;5.60;;;;;;;18.76;83.21;94205.28;5133117;27;20180;-45
2023/05/16 05:21:29;;;;;;;8.97;6.47;;;;;;;18.89;83.38;94190.72;5133266;27;20556;-46
2023/05/16 05:23:57;;;;;;;9.00;5.20;;;;;;;19.07;82.97;94197.88;5133178;27;20180;-43
2023/05/16 05:26:25;;;;;;;8.10;6.27;;;;;;;19.18;82.31;94195.47;5132767;27;20723;-46
2023/05/16 05:28:51;;;;;;;9.10;5.83;;;;;;;19.33;81.48;94197.03;5133074;27;20195;-45
2023/05/16 05:31:18;;;;;;;8.10;5.60;;;;;;;19.39;80.93;94178.88;5132860;27;20193;-46
2023/05/16 05:33:45;;;;;;;12.83;6.90;;;;;;;19.38;80.24;94168.69;5132367;27;20214;-46
2023/05/16 05:36:12;;;;;;;8.03;5.93;;;;;;;19.31;79.59;94181.69;5132381;27;20189;-47
2023/05/16 05:38:38;;;;;;;7.90;6.50;;;;;;;19.21;79.19;94174.34;5132901;27;20250;-43
2023/05/16 05:41:07;;;;;;;19.87;7.57;;;;;;;19.11;78.82;94171.34;5132259;27;20187;-45
2023/05/16 05:43:34;;;;;;;9.27;6.87;;;;;;;19.01;78.53;94158.03;5132945;27;20252;-46
2023/05/16 05:46:01;;;;;;;12.07;7.20;;;;;;;18.96;78.17;94160.44;5132140;27;20188;-45
2023/05/16 05:48:28;;;;;;;9.13;7.00;;;;;;;18.91;77.89;94155.03;5132724;27;20195;-46
2023/05/16 05:50:55;;;;;;;8.40;6.50;;;;;;;18.84;77.67;94156.88;5132477;27;20185;-45
2023/05/16 05:53:22;;;;;;;7.83;7.00;;;;;;;18.79;77.29;94157.47;5134418;27;20230;-45
2023/05/16 05:55:49;;;;;;;12.40;7.33;;;;;;;18.72;77.14;94149.69;5132264;27;20249;-46
2023/05/16 05:58:17;;;;;;;7.67;6.87;;;;;;;18.72;76.78;94156.66;5132236;27;20184;-44
2023/05/16 06:00:44;;;;;;;10.30;7.00;;;;;;;18.68;76.65;94163.22;5132073;27;20192;-47
2023/05/16 06:03:11;;;;;;;7.53;6.73;;;;;;;18.21;76.58;94087.34;5131892;27;20649;-45
2023/05/16 06:05:38;;;;;;;8.00;7.13;;;;;;;18.63;76.39;94158.63;5132239;27;20220;-45
2023/05/16 06:08:05;;;;;;;11.43;7.87;;;;;;;18.60;76.06;94171.19;5131528;27;20580;-43
2023/05/16 06:10:32;;;;;;;7.37;6.67;;;;;;;18.43;75.90;94153.44;5132228;27;20191;-45
2023/05/16 06:12:58;;;;;;;9.10;6.53;;;;;;;18.55;75.62;94167.41;5131968;27;20226;-43
2023/05/16 06:15:27;;;;;;;12.13;7.07;;;;;;;18.54;75.67;94176.16;5132081;27;20196;-46
2023/05/16 06:17:53;;;;;;;8.73;7.17;;;;;;;18.53;75.33;94168.59;5131419;27;20275;-45
2023/05/16 06:20:21;;;;;;;13.03;7.80;;;;;;;18.41;75.16;94152.06;5131070;27;20188;-45
2023/05/16 06:22:48;;;;;;;9.70;7.17;;;;;;;18.51;74.92;94171.38;5131065;27;20180;-45
2023/05/16 06:25:14;;;;;;;8.27;7.43;;;;;;;18.50;74.91;94171.59;5127820;27;20220;-48
2023/05/16 06:27:42;;;;;;;8.73;7.33;;;;;;;18.47;74.81;94157.22;5128368;27;20200;-43
2023/05/16 06:30:09;;;;;;;9.27;7.00;;;;;;;18.49;74.52;94164.81;5130662;27;20180;-46
2023/05/16 06:32:39;;;;;;;8.50;7.07;;;;;;;18.49;74.33;94163.03;5130738;27;20188;-43
2023/05/16 06:35:07;;;;;;;14.63;8.17;;;;;;;18.51;74.27;94147.28;5131146;27;20260;-44
2023/05/16 06:37:34;;;;;;;7.30;6.57;;;;;;;18.52;74.03;94146.28;5130498;27;20188;-46
2023/05/16 06:40:00;;;;;;;7.37;6.67;;;;;;;18.54;73.96;94132.16;5134243;27;20200;-44
2023/05/16 06:42:27;;;;;;;9.07;6.63;;;;;;;18.53;73.81;94124.59;5130579;27;20192;-45
2023/05/16 06:44:54;;;;;;;9.47;7.00;;;;;;;18.52;73.63;94128.16;5129839;27;20184;-47
2023/05/16 06:47:21;;;;;;;9.07;6.73;;;;;;;18.53;73.46;94122.78;5129997;27;20196;-41
2023/05/16 06:49:49;;;;;;;11.30;7.33;;;;;;;18.56;73.45;94106.03;5129953;27;20622;-44
2023/05/16 06:52:16;;;;;;;9.43;6.53;;;;;;;18.55;73.21;94100.06;5129425;27;20188;-43
2023/05/16 06:54:43;;;;;;;11.07;6.70;;;;;;;18.58;73.08;94100.69;5129556;27;20583;-40
2023/05/16 06:57:10;;;;;;;8.77;6.03;;;;;;;18.58;72.95;94090.31;5130160;27;20199;-43
2023/05/16 06:59:36;;;;;;;8.40;5.97;;;;;;;18.61;72.79;94095.06;5129213;27;20200;-46
2023/05/16 07:02:03;;;;;;;8.10;6.47;;;;;;;18.54;72.33;94076.97;5129679;27;20195;-43
2023/05/16 07:04:30;;;;;;;8.60;5.60;;;;;;;18.69;72.36;94092.28;5129739;27;20184;-45
2023/05/16 07:06:59;;;;;;;8.53;6.27;;;;;;;18.71;72.14;94088.53;5129348;27;20184;-46
2023/05/16 07:09:25;;;;;;;10.10;6.40;;;;;;;18.75;71.92;94078.56;5129163;27;20188;-45
2023/05/16 07:11:52;;;;;;;9.80;6.97;;;;;;;18.78;71.87;94078.13;5129467;27;20511;-45
2023/05/16 07:14:19;;;;;;;8.93;6.37;;;;;;;18.84;71.63;94074.75;5129716;27;20219;-44
2023/05/16 07:16:46;;;;;;;6.00;5.40;;;;;;;18.68;71.39;94049.25;5129922;27;20273;-44
2023/05/16 07:19:13;;;;;;;9.93;6.23;;;;;;;18.94;71.14;94087.28;5130112;27;20628;-45
2023/05/16 07:21:39;;;;;;;6.17;5.47;;;;;;;18.98;70.95;94068.53;5129705;27;20721;-46
2023/05/16 07:24:08;;;;;;;6.70;5.80;;;;;;;19.00;70.85;94061.34;5129416;27;20195;-44
2023/05/16 07:26:35;;;;;;;7.10;5.70;;;;;;;19.07;70.60;94055.34;5129683;27;20196;-43
2023/05/16 07:29:03;;;;;;;10.77;5.87;;;;;;;19.10;70.56;94073.88;5128785;27;20192;-46
2023/05/16 07:31:30;;;;;;;5.97;5.37;;;;;;;19.14;70.39;94080.25;5129363;27;20196;-45
2023/05/16 07:33:56;;;;;;;6.47;5.87;;;;;;;19.19;70.09;94090.78;5129340;27;20279;-44
2023/05/16 07:36:24;;;;;;;7.93;6.13;;;;;;;19.24;69.93;94095.34;5129021;27;20283;-45
2023/05/16 07:38:50;;;;;;;9.63;6.23;;;;;;;19.30;70.02;94107.50;5128231;27;20903;-45
2023/05/16 07:41:19;;;;;;;8.87;5.67;;;;;;;19.35;69.65;94128.41;5128908;27;20193;-45
2023/05/16 07:43:45;;;;;;;7.63;6.53;;;;;;;19.39;69.64;94124.41;5129164;27;20196;-42
2023/05/16 07:46:13;;;;;;;10.30;5.77;;;;;;;19.44;69.52;94134.97;5129048;28;20203;-44
2023/05/16 07:48:40;;;;;;;10.70;6.20;;;;;;;19.49;69.45;94116.97;5129320;28;20203;-44
2023/05/16 07:51:06;;;;;;;7.93;5.77;;;;;;;19.55;69.41;94121.34;5129269;28;20192;-42
2023/05/16 07:53:33;;;;;;;8.10;6.00;;;;;;;19.59;69.14;94100.19;5130721;28;20230;-43
2023/05/16 07:56:00;;;;;;;9.90;6.33;;;;;;;19.67;69.14;94105.94;5133263;28;20196;-45
2023/05/16 07:58:28;;;;;;;8.07;6.30;;;;;;;19.67;68.89;94095.56;5129181;28;20728;-43
2023/05/16 08:00:55;;;;;;;6.17;5.53;;;;;;;19.77;68.77;94098.53;5129612;28;20193;-44
2023/05/16 08:03:22;;;;;;;7.00;5.73;;;;;;;19.81;68.48;94093.69;5128442;28;20224;-45
2023/05/16 08:05:50;;;;;;;8.30;6.00;;;;;;;19.88;68.29;94089.25;5129066;28;20204;-44
2023/05/16 08:08:17;;;;;;;5.57;5.00;;;;;;;19.93;68.20;94086.03;5128611;28;20180;-42
2023/05/16 08:10:44;;;;;;;6.53;5.87;;;;;;;19.98;67.99;94073.22;5128363;28;20729;-44
2023/05/16 08:13:11;;;;;;;6.63;5.80;;;;;;;20.05;67.87;94073.97;5128431;28;20196;-44
2023/05/16 08:15:39;;;;;;;9.30;6.20;;;;;;;20.12;67.65;94061.75;5128550;28;20192;-46
2023/05/16 08:18:13;;;;;;;9.50;6.60;;;;;;;20.17;67.44;94051.53;5128565;28;20189;-45
2023/05/16 08:20:40;;;;;;;9.83;6.37;;;;;;;20.26;67.32;94052.03;5128774;28;20303;-44
2023/05/16 08:23:07;;;;;;;7.63;6.07;;;;;;;20.33;67.25;94051.97;5128804;28;20645;-45
2023/05/16 08:25:34;;;;;;;10.27;6.80;;;;;;;20.41;66.90;94046.50;5128751;28;20216;-45
2023/05/16 08:28:01;;;;;;;6.80;5.82;;;;;;;20.48;66.77;94047.28;5128990;28;20223;-46
2023/05/16 08:30:29;;;;;;;7.60;6.13;;;;;;;20.56;66.65;94041.81;5128293;28;20748;-45
2023/05/16 08:32:57;;;;;;;6.88;6.18;;;;;;;20.67;66.52;94045.50;5128503;28;20181;-45
2023/05/16 08:35:24;;;;;;;7.35;6.22;;;;;;;20.34;66.36;93973.09;5128394;28;20220;-44
2023/05/16 08:37:50;;;;;;;6.82;5.78;;;;;;;20.81;65.91;94041.72;5128764;28;20188;-45
2023/05/16 08:40:18;;;;;;;7.85;5.95;;;;;;;20.87;65.78;94048.69;5128287;28;20195;-43
2023/05/16 08:42:45;;;;;;;7.95;6.18;;;;;;;20.97;65.34;94048.16;5131202;28;20196;-44
2023/05/16 08:45:13;;;;;;;8.07;6.05;;;;;;;21.06;65.21;94039.06;5131649;28;20196;-43
2023/05/16 08:47:42;;;;;;;7.40;5.78;;;;;;;21.16;64.79;94035.97;5129055;28;20636;-42
2023/05/16 08:50:11;;;;;;;7.32;5.93;;;;;;;21.28;64.35;94023.78;5129545;27;20730;-45
2023/05/16 08:52:39;;;;;;;10.98;6.22;;;;;;;21.46;64.10;94041.19;5131687;27;20644;-44
2023/05/16 08:55:08;;;;;;;8.20;6.10;;;;;;;21.65;63.90;94047.16;5131987;27;20208;-41
2023/05/16 08:57:35;;;;;;;9.85;5.18;;;;;;;21.87;63.64;94057.84;5128768;27;20712;-41
2023/05/16 09:00:10;;;;;;;13.02;5.50;;;;;;;22.11;62.84;94069.13;5129218;27;20196;-45
2023/05/16 09:02:38;;;;;;;7.20;5.38;;;;;;;22.38;62.53;94072.91;5127309;27;20199;-42
2023/05/16 09:05:05;;;;;;;9.88;5.22;;;;;;;22.38;62.19;94049.44;5129434;27;20192;-44
2023/05/16 09:07:34;;;;;;;8.13;5.18;;;;;;;22.52;61.86;94045.59;5129547;27;20203;-43
2023/05/16 09:10:01;;;;;;;7.50;5.00;;;;;;;22.86;61.82;94082.31;5128280;27;20675;-44
2023/05/16 09:12:28;;;;;;;9.13;5.53;;;;;;;22.99;61.57;94074.25;5129566;27;20184;-43
2023/05/16 09:14:54;;;;;;;7.63;6.10;;;;;;;23.11;61.53;94076.84;5129234;27;20216;-45
2023/05/16 09:17:21;;;;;;;10.15;5.68;;;;;;;23.22;61.13;94083.84;5129289;27;20806;-44
2023/05/16 09:19:51;;;;;;;5.53;4.90;;;;;;;23.30;61.14;94087.91;5128732;27;20196;-44
2023/05/16 09:22:18;;;;;;;6.93;5.28;;;;;;;23.37;60.95;94083.38;5127156;27;20191;-44
2023/05/16 09:24:47;;;;;;;7.88;5.22;;;;;;;23.41;61.05;94087.09;5128966;27;20731;-43
2023/05/16 09:27:15;;;;;;;7.65;4.90;;;;;;;23.47;60.70;94095.81;5128685;27;20204;-46
2023/05/16 09:29:43;;;;;;;5.82;5.00;;;;;;;23.43;60.76;94089.47;5128655;27;20195;-46
2023/05/16 09:32:12;;;;;;;7.82;5.40;;;;;;;23.51;60.31;94095.13;5128878;27;20249;-47
2023/05/16 09:34:43;;;;;;;7.25;5.10;;;;;;;23.53;60.60;94087.03;5129288;27;20218;-45
2023/05/16 09:37:11;;;;;;;9.32;5.20;;;;;;;23.43;60.36;94053.72;5128157;27;20785;-45
2023/05/16 09:39:40;;;;;;;11.57;5.70;;;;;;;23.53;60.41;94068.78;5128847;27;20216;-43
2023/05/16 09:42:12;;;;;;;6.43;5.05;;;;;;;23.57;60.35;94072.50;5129223;27;20224;-45
2023/05/16 09:44:39;;;;;;;7.28;5.45;;;;;;;23.46;60.03;94055.88;5128822;27;20267;-43
2023/05/16 09:47:06;;;;;;;6.35;4.95;;;;;;;23.63;60.22;94078.63;5128719;27;20652;-47
2023/05/16 09:49:33;;;;;;;7.30;4.65;;;;;;;23.65;59.91;94073.97;5128627;27;20390;-44
2023/05/16 09:52:01;;;;;;;9.95;5.20;;;;;;;23.66;59.58;94070.34;5128118;27;20917;-45
2023/05/16 09:54:32;;;;;;;5.90;5.28;;;;;;;23.69;59.58;94068.06;5127390;27;20708;-46
2023/05/16 09:56:59;;;;;;;7.18;5.55;;;;;;;23.76;59.61;94075.75;5130909;27;20287;-44
2023/05/16 09:59:29;;;;;;;8.95;5.38;;;;;;;23.81;59.78;94081.06;5130270;27;20263;-44
2023/05/16 10:01:59;;;;;;;7.70;5.22;;;;;;;23.74;59.23;94057.69;5129642;27;20627;-42
2023/05/16 10:04:25;;;;;;;5.82;5.18;;;;;;;23.91;59.33;94076.00;5130565;27;20273;-44
2023/05/16 10:06:55;;;;;;;8.23;5.07;;;;;;;23.89;58.94;94062.41;5130677;27;20191;-43
2023/05/16 10:09:23;;;;;;;7.63;5.20;;;;;;;23.83;59.07;94041.66;5130739;27;20343;-46
2023/05/16 10:11:52;;;;;;;7.78;6.00;;;;;;;24.10;58.78;94073.22;5130611;27;20234;-45
2023/05/16 10:14:20;;;;;;;6.30;5.07;;;;;;;24.16;58.92;94075.66;5130937;27;20208;-51
2023/05/16 10:16:49;;;;;;;7.18;5.40;;;;;;;24.19;58.59;94074.41;5130599;27;20196;-45
2023/05/16 10:19:20;;;;;;;10.73;5.22;;;;;;;24.22;58.50;94084.34;5130423;27;20199;-44
2023/05/16 10:21:52;;;;;;;7.03;5.20;;;;;;;24.20;58.45;94091.66;5127856;27;20272;-44
2023/05/16 10:24:29;;;;;;;9.13;5.65;;;;;;;24.19;58.56;94087.47;5128442;27;20192;-45
2023/05/16 10:26:56;;;;;;;6.75;5.20;;;;;;;24.13;58.40;94077.94;5130385;27;20188;-44
2023/05/16 10:29:24;;;;;;;6.32;5.15;;;;;;;24.10;58.62;94081.84;5130852;27;20195;-45
2023/05/16 10:31:59;;;;;;;6.53;5.80;;;;;;;24.06;58.26;94075.50;5130867;27;20188;-48
2023/05/16 10:34:26;;;;;;;7.32;5.32;;;;;;;24.01;58.37;94072.81;5131843;27;20222;-44
2023/05/16 10:36:54;;;;;;;6.10;5.50;;;;;;;23.96;58.42;94063.06;5130322;27;20184;-45
2023/05/16 10:39:22;;;;;;;6.70;5.65;;;;;;;23.91;58.51;94062.16;5130445;27;20276;-45
2023/05/16 10:41:50;;;;;;;9.48;5.82;;;;;;;23.83;58.57;94042.44;5130517;27;20193;-46
2023/05/16 10:44:17;;;;;;;8.85;5.15;;;;;;;23.73;58.82;94039.66;5129700;27;20291;-44
2023/05/16 10:46:44;;;;;;;9.73;5.45;;;;;;;23.75;58.92;94038.41;5131813;27;20192;-45
2023/05/16 10:49:23;;;;;;;7.10;5.47;;;;;;;23.70;58.46;94032.28;5133046;27;20195;-47
2023/05/16 10:52:04;;;;;;;8.77;5.40;;;;;;;23.88;58.21;94033.94;5130737;27;20206;-44
2023/05/16 10:54:36;;;;;;;7.45;5.65;;;;;;;23.94;58.41;94023.31;5128613;27;20231;-46
2023/05/16 10:57:08;;;;;;;7.82;6.13;;;;;;;23.97;57.79;94017.63;5129754;27;20293;-45
2023/05/16 10:59:43;;;;;;;6.57;5.72;;;;;;;23.96;57.98;94025.69;5129893;27;20676;-45
2023/05/16 11:02:31;;;;;;;7.35;5.57;;;;;;;23.92;58.01;94035.00;5127980;27;20192;-43
2023/05/16 11:05:00;;;;;;;7.90;5.35;;;;;;;23.81;58.38;94034.06;5130432;27;20192;-46
2023/05/16 11:07:32;;;;;;;8.32;5.90;;;;;;;23.75;58.49;94053.28;5129559;27;20889;-45
2023/05/16 11:10:08;;;;;;;9.85;5.32;;;;;;;23.66;58.56;94065.94;5130171;27;20200;-44
2023/05/16 11:12:43;;;;;;;10.15;5.60;;;;;;;23.57;58.78;94069.09;5129638;27;20196;-46
2023/05/16 11:15:34;;;;;;;8.48;5.35;;;;;;;23.45;58.80;94077.00;5127889;27;20230;-43
2023/05/16 11:18:09;;;;;;;9.95;5.53;;;;;;;23.25;58.96;94057.31;5046386;28;20730;-44
2023/05/16 11:20:39;;;;;;;7.85;5.55;;;;;;;23.32;58.94;94085.88;5045960;28;20686;-46
2023/05/16 11:23:20;;;;;;;6.00;5.20;;;;;;;23.25;59.05;94086.00;5043529;28;20594;-44
2023/05/16 11:25:49;;;;;;;8.00;5.32;;;;;;;23.20;59.31;94087.72;5045551;28;20733;-44
2023/05/16 11:28:18;;;;;;;7.60;5.97;;;;;;;23.13;59.05;94079.22;5043358;28;20248;-45
2023/05/16 11:30:47;;;;;;;10.75;6.30;;;;;;;23.09;59.48;94073.66;5042070;28;20308;-46
2023/05/16 11:33:14;;;;;;;8.30;5.82;;;;;;;23.06;59.58;94070.72;5043789;28;20488;-44
2023/05/16 11:35:43;;;;;;;7.45;5.22;;;;;;;22.96;59.22;94056.44;5045783;28;20243;-44